Time;durP1;ratioP1;P1;durP2;ratioP2;P2;SDS_P1;SDS_P2;PMS_P1;PMS_P2;Temp;Humidity;BMP_temperature;BMP_pressure;BME280_temperature;BME280_humidity;BME280_pressure;Samples;Min_cycle;Max_cycle;Signal;HPM_P1;HPM_P2
2021/12/13 00:00:43;;;;;;;2.1;1.55;;;;;;;4.22;100;96095.36;;;;
2021/12/13 00:01:50;;;;;;;2.1;1.55;;;;;;;4.22;100;96095.36;;;;
2021/12/13 00:02:57;;;;;;;2.1;1.55;;;;;;;4.22;100;96095.36;;;;
2021/12/13 00:04:10;;;;;;;2.1;1.55;;;;;;;4.22;100;96095.36;;;;
2021/12/13 00:05:18;;;;;;;2.1;1.55;;;;;;;4.22;100;96095.36;;;;
2021/12/13 00:06:26;;;;;;;2.1;1.55;;;;;;;4.22;100;96095.36;;;;
2021/12/13 00:07:30;;;;;;;2.1;1.55;;;;;;;4.22;100;96095.36;;;;
2021/12/13 00:08:35;;;;;;;1.9;1.2;;;;;;;4.24;100;96089.29;;;;
2021/12/13 00:09:39;;;;;;;1.9;1.2;;;;;;;4.24;100;96089.29;;;;
2021/12/13 00:10:43;;;;;;;1.9;1.2;;;;;;;4.24;100;96089.29;;;;
2021/12/13 00:11:48;;;;;;;1.9;1.2;;;;;;;4.24;100;96089.29;;;;
2021/12/13 00:12:53;;;;;;;1.9;1.2;;;;;;;4.24;100;96089.29;;;;
2021/12/13 00:14:02;;;;;;;1.9;1.2;;;;;;;4.24;100;96089.29;;;;
2021/12/13 00:15:09;;;;;;;1.9;1.2;;;;;;;4.24;100;96089.29;;;;
2021/12/13 00:16:14;;;;;;;1.9;1.2;;;;;;;4.24;100;96089.29;;;;
2021/12/13 00:17:23;;;;;;;1.9;1.2;;;;;;;4.24;100;96089.29;;;;
2021/12/13 00:18:27;;;;;;;1.9;1.2;;;;;;;4.24;100;96089.29;;;;
2021/12/13 00:19:34;;;;;;;1.7;1.2;;;;;;;4.28;100;96092.86;;;;
2021/12/13 00:20:39;;;;;;;1.7;1.2;;;;;;;4.28;100;96092.86;;;;
2021/12/13 00:21:44;;;;;;;1.7;1.2;;;;;;;4.28;100;96092.86;;;;
2021/12/13 00:22:50;;;;;;;1.7;1.2;;;;;;;4.28;100;96092.86;;;;
2021/12/13 00:23:51;;;;;;;1.7;1.2;;;;;;;4.28;100;96092.86;;;;
2021/12/13 00:24:57;;;;;;;1.7;1.2;;;;;;;4.28;100;96092.86;;;;
2021/12/13 00:26:04;;;;;;;1.7;1.2;;;;;;;4.28;100;96092.86;;;;
2021/12/13 00:27:05;;;;;;;1.7;1.2;;;;;;;4.28;100;96092.86;;;;
2021/12/13 00:28:10;;;;;;;1.7;1.2;;;;;;;4.28;100;96092.86;;;;
2021/12/13 00:29:13;;;;;;;1.7;1.2;;;;;;;4.28;100;96092.86;;;;
2021/12/13 00:30:18;;;;;;;2.6;1.2;;;;;;;4.32;100;96083.59;;;;
2021/12/13 00:31:29;;;;;;;2.6;1.2;;;;;;;4.32;100;96083.59;;;;
2021/12/13 00:32:43;;;;;;;2.6;1.2;;;;;;;4.32;100;96083.59;;;;
2021/12/13 00:34:01;;;;;;;2.6;1.2;;;;;;;4.32;100;96083.59;;;;
2021/12/13 00:35:18;;;;;;;2.6;1.2;;;;;;;4.32;100;96083.59;;;;
2021/12/13 00:36:23;;;;;;;2.6;1.2;;;;;;;4.32;100;96083.59;;;;
2021/12/13 00:37:30;;;;;;;2.6;1.2;;;;;;;4.32;100;96083.59;;;;
2021/12/13 00:38:33;;;;;;;2.6;1.2;;;;;;;4.32;100;96083.59;;;;
2021/12/13 00:39:40;;;;;;;2.6;1.2;;;;;;;4.32;100;96083.59;;;;
2021/12/13 00:40:48;;;;;;;1.85;1.05;;;;;;;4.27;100;96092.55;;;;
2021/12/13 00:41:54;;;;;;;1.85;1.05;;;;;;;4.27;100;96092.55;;;;
2021/12/13 00:42:55;;;;;;;1.85;1.05;;;;;;;4.27;100;96092.55;;;;
2021/12/13 00:44:04;;;;;;;1.85;1.05;;;;;;;4.27;100;96092.55;;;;
2021/12/13 00:45:10;;;;;;;1.85;1.05;;;;;;;4.27;100;96092.55;;;;
2021/12/13 00:46:16;;;;;;;1.85;1.05;;;;;;;4.27;100;96092.55;;;;
2021/12/13 00:47:18;;;;;;;1.85;1.05;;;;;;;4.27;100;96092.55;;;;
2021/12/13 00:48:23;;;;;;;1.85;1.05;;;;;;;4.27;100;96092.55;;;;
2021/12/13 00:49:27;;;;;;;1.85;1.05;;;;;;;4.27;100;96092.55;;;;
2021/12/13 00:50:29;;;;;;;1.85;1.05;;;;;;;4.27;100;96092.55;;;;
2021/12/13 00:51:35;;;;;;;1.2;1.05;;;;;;;4.24;100;96093.31;;;;
2021/12/13 00:52:43;;;;;;;1.2;1.05;;;;;;;4.24;100;96093.31;;;;
2021/12/13 00:53:46;;;;;;;1.2;1.05;;;;;;;4.24;100;96093.31;;;;
2021/12/13 00:54:51;;;;;;;1.2;1.05;;;;;;;4.24;100;96093.31;;;;
2021/12/13 00:55:53;;;;;;;1.2;1.05;;;;;;;4.24;100;96093.31;;;;
2021/12/13 00:56:54;;;;;;;1.2;1.05;;;;;;;4.24;100;96093.31;;;;
2021/12/13 00:58:08;;;;;;;1.2;1.05;;;;;;;4.24;100;96093.31;;;;
2021/12/13 00:59:11;;;;;;;1.2;1.05;;;;;;;4.24;100;96093.31;;;;
2021/12/13 01:00:18;;;;;;;1.2;1.05;;;;;;;4.24;100;96093.31;;;;
2021/12/13 01:01:25;;;;;;;1.2;1.05;;;;;;;4.24;100;96093.31;;;;
2021/12/13 01:02:27;;;;;;;1.2;1.05;;;;;;;4.24;100;96093.31;;;;
2021/12/13 01:03:30;;;;;;;1.5;1.1;;;;;;;4.2;100;96096.95;;;;
2021/12/13 01:04:37;;;;;;;1.5;1.1;;;;;;;4.2;100;96096.95;;;;
2021/12/13 01:05:53;;;;;;;1.5;1.1;;;;;;;4.2;100;96096.95;;;;
2021/12/13 01:11:41;;;;;;;1.5;1.1;;;;;;;4.2;100;96096.95;;;;
2021/12/13 01:12:51;;;;;;;1.5;1.1;;;;;;;4.2;100;96096.95;;;;
2021/12/13 01:13:53;;;;;;;1.15;1;;;;;;;4.15;100;96107.76;;;;
2021/12/13 01:15:16;;;;;;;1.15;1;;;;;;;4.15;100;96107.76;;;;
2021/12/13 01:16:35;;;;;;;1.15;1;;;;;;;4.15;100;96107.76;;;;
2021/12/13 01:17:50;;;;;;;1.15;1;;;;;;;4.15;100;96107.76;;;;
2021/12/13 01:19:01;;;;;;;1.15;1;;;;;;;4.15;100;96107.76;;;;
2021/12/13 01:20:16;;;;;;;1.15;1;;;;;;;4.15;100;96107.76;;;;
2021/12/13 01:21:30;;;;;;;1.15;1;;;;;;;4.15;100;96107.76;;;;
2021/12/13 01:22:43;;;;;;;1.15;1;;;;;;;4.15;100;96107.76;;;;
2021/12/13 01:23:50;;;;;;;1.15;1;;;;;;;4.15;100;96107.76;;;;
2021/12/13 01:25:15;;;;;;;1.2;1;;;;;;;4.13;100;96117.8;;;;
2021/12/13 01:26:28;;;;;;;1.2;1;;;;;;;4.13;100;96117.8;;;;
2021/12/13 01:27:33;;;;;;;1.2;1;;;;;;;4.13;100;96117.8;;;;
2021/12/13 01:28:38;;;;;;;1.2;1;;;;;;;4.13;100;96117.8;;;;
2021/12/13 01:29:42;;;;;;;1.2;1;;;;;;;4.13;100;96117.8;;;;
2021/12/13 01:30:52;;;;;;;1.2;1;;;;;;;4.13;100;96117.8;;;;
2021/12/13 01:31:56;;;;;;;1.2;1;;;;;;;4.13;100;96117.8;;;;
2021/12/13 01:33:01;;;;;;;1.2;1;;;;;;;4.13;100;96117.8;;;;
2021/12/13 01:34:06;;;;;;;1.2;1;;;;;;;4.13;100;96117.8;;;;
2021/12/13 01:35:09;;;;;;;1.2;1;;;;;;;4.13;100;96117.8;;;;
2021/12/13 01:36:17;;;;;;;1.2;1.1;;;;;;;4.09;100;96134.76;;;;
2021/12/13 01:37:22;;;;;;;1.2;1.1;;;;;;;4.09;100;96134.76;;;;
2021/12/13 01:38:33;;;;;;;1.2;1.1;;;;;;;4.09;100;96134.76;;;;
2021/12/13 01:39:38;;;;;;;1.2;1.1;;;;;;;4.09;100;96134.76;;;;
2021/12/13 01:40:43;;;;;;;1.2;1.1;;;;;;;4.09;100;96134.76;;;;
2021/12/13 01:41:48;;;;;;;1.2;1.1;;;;;;;4.09;100;96134.76;;;;
2021/12/13 01:42:53;;;;;;;1.2;1.1;;;;;;;4.09;100;96134.76;;;;
2021/12/13 01:43:58;;;;;;;1.2;1.1;;;;;;;4.09;100;96134.76;;;;
2021/12/13 01:45:05;;;;;;;1.2;1.1;;;;;;;4.09;100;96134.76;;;;
2021/12/13 01:46:11;;;;;;;1.2;1.1;;;;;;;4.09;100;96134.76;;;;
2021/12/13 01:47:12;;;;;;;1.5;1;;;;;;;4.02;100;96128.88;;;;
2021/12/13 01:48:17;;;;;;;1.5;1;;;;;;;4.02;100;96128.88;;;;
2021/12/13 01:49:22;;;;;;;1.5;1;;;;;;;4.02;100;96128.88;;;;
2021/12/13 01:50:29;;;;;;;1.5;1;;;;;;;4.02;100;96128.88;;;;
2021/12/13 01:51:34;;;;;;;1.5;1;;;;;;;4.02;100;96128.88;;;;
2021/12/13 01:52:36;;;;;;;1.5;1;;;;;;;4.02;100;96128.88;;;;
2021/12/13 01:53:38;;;;;;;1.5;1;;;;;;;4.02;100;96128.88;;;;
2021/12/13 01:54:42;;;;;;;1.5;1;;;;;;;4.02;100;96128.88;;;;
2021/12/13 01:55:45;;;;;;;1.5;1;;;;;;;4.02;100;96128.88;;;;
2021/12/13 01:56:53;;;;;;;1.5;1;;;;;;;4.02;100;96128.88;;;;
2021/12/13 01:58:07;;;;;;;1.2;1.1;;;;;;;3.9;100;96139.59;;;;
2021/12/13 01:59:28;;;;;;;1.2;1.1;;;;;;;3.9;100;96139.59;;;;
2021/12/13 02:00:43;;;;;;;1.2;1.1;;;;;;;3.9;100;96139.59;;;;
2021/12/13 02:01:44;;;;;;;1.2;1.1;;;;;;;3.9;100;96139.59;;;;
2021/12/13 02:02:45;;;;;;;1.2;1.1;;;;;;;3.9;100;96139.59;;;;
2021/12/13 02:03:48;;;;;;;1.2;1.1;;;;;;;3.9;100;96139.59;;;;
2021/12/13 02:04:56;;;;;;;1.2;1.1;;;;;;;3.9;100;96139.59;;;;
2021/12/13 02:06:02;;;;;;;1.2;1.1;;;;;;;3.9;100;96139.59;;;;
2021/12/13 02:07:03;;;;;;;1.2;1.1;;;;;;;3.9;100;96139.59;;;;
2021/12/13 02:08:06;;;;;;;1.2;1.1;;;;;;;3.9;100;96139.59;;;;
2021/12/13 02:09:11;;;;;;;1.75;1.2;;;;;;;3.88;100;96137.2;;;;
2021/12/13 02:10:15;;;;;;;1.75;1.2;;;;;;;3.88;100;96137.2;;;;
2021/12/13 02:11:21;;;;;;;1.75;1.2;;;;;;;3.88;100;96137.2;;;;
2021/12/13 02:12:24;;;;;;;1.75;1.2;;;;;;;3.88;100;96137.2;;;;
2021/12/13 02:13:27;;;;;;;1.75;1.2;;;;;;;3.88;100;96137.2;;;;
2021/12/13 02:14:32;;;;;;;1.75;1.2;;;;;;;3.88;100;96137.2;;;;
2021/12/13 02:20:51;;;;;;;1.05;1;;;;;;;3.85;100;96135.82;;;;
2021/12/13 02:21:55;;;;;;;1.05;1;;;;;;;3.85;100;96135.82;;;;
2021/12/13 02:23:06;;;;;;;1.05;1;;;;;;;3.85;100;96135.82;;;;
2021/12/13 02:24:07;;;;;;;1.05;1;;;;;;;3.85;100;96135.82;;;;
2021/12/13 02:25:11;;;;;;;1.05;1;;;;;;;3.85;100;96135.82;;;;
2021/12/13 02:26:18;;;;;;;1.05;1;;;;;;;3.85;100;96135.82;;;;
2021/12/13 02:27:19;;;;;;;1.05;1;;;;;;;3.85;100;96135.82;;;;
2021/12/13 02:28:24;;;;;;;1.05;1;;;;;;;3.85;100;96135.82;;;;
2021/12/13 02:29:35;;;;;;;1.05;1;;;;;;;3.85;100;96135.82;;;;
2021/12/13 02:30:36;;;;;;;1.6;1.2;;;;;;;3.81;100;96133.99;;;;
2021/12/13 02:31:44;;;;;;;1.6;1.2;;;;;;;3.81;100;96133.99;;;;
2021/12/13 02:32:46;;;;;;;1.6;1.2;;;;;;;3.81;100;96133.99;;;;
2021/12/13 02:33:47;;;;;;;1.6;1.2;;;;;;;3.81;100;96133.99;;;;
2021/12/13 02:34:54;;;;;;;1.6;1.2;;;;;;;3.81;100;96133.99;;;;
2021/12/13 02:35:57;;;;;;;1.6;1.2;;;;;;;3.81;100;96133.99;;;;
2021/12/13 02:37:00;;;;;;;1.6;1.2;;;;;;;3.81;100;96133.99;;;;
2021/12/13 02:38:01;;;;;;;1.6;1.2;;;;;;;3.81;100;96133.99;;;;
2021/12/13 02:39:05;;;;;;;1.6;1.2;;;;;;;3.81;100;96133.99;;;;
2021/12/13 02:40:10;;;;;;;1.6;1.2;;;;;;;3.81;100;96133.99;;;;
2021/12/13 02:41:15;;;;;;;1.4;1.3;;;;;;;3.79;100;96135.58;;;;
2021/12/13 02:42:18;;;;;;;1.4;1.3;;;;;;;3.79;100;96135.58;;;;
2021/12/13 02:43:19;;;;;;;1.4;1.3;;;;;;;3.79;100;96135.58;;;;
2021/12/13 02:44:24;;;;;;;1.4;1.3;;;;;;;3.79;100;96135.58;;;;
2021/12/13 02:45:31;;;;;;;1.4;1.3;;;;;;;3.79;100;96135.58;;;;
2021/12/13 02:46:40;;;;;;;1.4;1.3;;;;;;;3.79;100;96135.58;;;;
2021/12/13 02:47:42;;;;;;;1.4;1.3;;;;;;;3.79;100;96135.58;;;;
2021/12/13 02:48:50;;;;;;;1.4;1.3;;;;;;;3.79;100;96135.58;;;;
2021/12/13 02:49:55;;;;;;;1.4;1.3;;;;;;;3.79;100;96135.58;;;;
2021/12/13 02:50:56;;;;;;;1.4;1.3;;;;;;;3.79;100;96135.58;;;;
2021/12/13 02:52:01;;;;;;;1.4;1.3;;;;;;;3.79;100;96135.58;;;;
2021/12/13 02:53:05;;;;;;;1.3;1.2;;;;;;;3.71;100;96136.02;;;;
2021/12/13 02:54:07;;;;;;;1.3;1.2;;;;;;;3.71;100;96136.02;;;;
2021/12/13 02:55:12;;;;;;;1.3;1.2;;;;;;;3.71;100;96136.02;;;;
2021/12/13 02:56:18;;;;;;;1.3;1.2;;;;;;;3.71;100;96136.02;;;;
2021/12/13 02:57:25;;;;;;;1.3;1.2;;;;;;;3.71;100;96136.02;;;;
2021/12/13 02:58:28;;;;;;;1.3;1.2;;;;;;;3.71;100;96136.02;;;;
2021/12/13 02:59:30;;;;;;;1.3;1.2;;;;;;;3.71;100;96136.02;;;;
2021/12/13 03:00:35;;;;;;;1.3;1.2;;;;;;;3.71;100;96136.02;;;;
2021/12/13 03:01:45;;;;;;;1.3;1.2;;;;;;;3.71;100;96136.02;;;;
2021/12/13 03:02:49;;;;;;;1.3;1.2;;;;;;;3.71;100;96136.02;;;;
2021/12/13 03:03:55;;;;;;;2;1.3;;;;;;;3.67;100;96143.61;;;;
2021/12/13 03:05:01;;;;;;;2;1.3;;;;;;;3.67;100;96143.61;;;;
2021/12/13 03:06:06;;;;;;;2;1.3;;;;;;;3.67;100;96143.61;;;;
2021/12/13 03:07:10;;;;;;;2;1.3;;;;;;;3.67;100;96143.61;;;;
2021/12/13 03:08:18;;;;;;;2;1.3;;;;;;;3.67;100;96143.61;;;;
2021/12/13 03:09:23;;;;;;;2;1.3;;;;;;;3.67;100;96143.61;;;;
2021/12/13 03:10:27;;;;;;;2;1.3;;;;;;;3.67;100;96143.61;;;;
2021/12/13 03:11:32;;;;;;;2;1.3;;;;;;;3.67;100;96143.61;;;;
2021/12/13 03:12:33;;;;;;;2;1.3;;;;;;;3.67;100;96143.61;;;;
2021/12/13 03:13:34;;;;;;;2;1.3;;;;;;;3.67;100;96143.61;;;;
2021/12/13 03:14:35;;;;;;;1.6;1.25;;;;;;;3.74;100;96145.01;;;;
2021/12/13 03:15:40;;;;;;;1.6;1.25;;;;;;;3.74;100;96145.01;;;;
2021/12/13 03:16:46;;;;;;;1.6;1.25;;;;;;;3.74;100;96145.01;;;;
2021/12/13 03:17:51;;;;;;;1.6;1.25;;;;;;;3.74;100;96145.01;;;;
2021/12/13 03:18:55;;;;;;;1.6;1.25;;;;;;;3.74;100;96145.01;;;;
2021/12/13 03:20:01;;;;;;;1.6;1.25;;;;;;;3.74;100;96145.01;;;;
2021/12/13 03:21:15;;;;;;;1.6;1.25;;;;;;;3.74;100;96145.01;;;;
2021/12/13 03:22:49;;;;;;;1.6;1.25;;;;;;;3.74;100;96145.01;;;;
2021/12/13 03:24:16;;;;;;;1.6;1.25;;;;;;;3.74;100;96145.01;;;;
2021/12/13 03:25:29;;;;;;;1.4;1.2;;;;;;;3.8;100;96153.67;;;;
2021/12/13 03:26:42;;;;;;;1.4;1.2;;;;;;;3.8;100;96153.67;;;;
2021/12/13 03:28:09;;;;;;;1.4;1.2;;;;;;;3.8;100;96153.67;;;;
2021/12/13 03:29:19;;;;;;;1.4;1.2;;;;;;;3.8;100;96153.67;;;;
2021/12/13 03:30:28;;;;;;;1.4;1.2;;;;;;;3.8;100;96153.67;;;;
2021/12/13 03:31:34;;;;;;;1.4;1.2;;;;;;;3.8;100;96153.67;;;;
2021/12/13 03:32:39;;;;;;;1.4;1.2;;;;;;;3.8;100;96153.67;;;;
2021/12/13 03:33:45;;;;;;;1.4;1.2;;;;;;;3.8;100;96153.67;;;;
2021/12/13 03:34:55;;;;;;;1.4;1.2;;;;;;;3.8;100;96153.67;;;;
2021/12/13 03:36:05;;;;;;;1.4;1.2;;;;;;;3.8;100;96153.67;;;;
2021/12/13 03:37:10;;;;;;;1.45;1.35;;;;;;;3.84;100;96149.66;;;;
2021/12/13 03:38:16;;;;;;;1.45;1.35;;;;;;;3.84;100;96149.66;;;;
2021/12/13 03:39:21;;;;;;;1.45;1.35;;;;;;;3.84;100;96149.66;;;;
2021/12/13 03:40:36;;;;;;;1.45;1.35;;;;;;;3.84;100;96149.66;;;;
2021/12/13 03:41:36;;;;;;;1.45;1.35;;;;;;;3.84;100;96149.66;;;;
2021/12/13 03:42:42;;;;;;;1.45;1.35;;;;;;;3.84;100;96149.66;;;;
2021/12/13 03:43:47;;;;;;;1.45;1.35;;;;;;;3.84;100;96149.66;;;;
2021/12/13 03:44:55;;;;;;;1.45;1.35;;;;;;;3.84;100;96149.66;;;;
2021/12/13 03:46:02;;;;;;;1.45;1.35;;;;;;;3.84;100;96149.66;;;;
2021/12/13 03:47:09;;;;;;;1.5;1.4;;;;;;;3.83;100;96139.96;;;;
2021/12/13 03:48:14;;;;;;;1.5;1.4;;;;;;;3.83;100;96139.96;;;;
2021/12/13 03:49:17;;;;;;;1.5;1.4;;;;;;;3.83;100;96139.96;;;;
2021/12/13 03:50:19;;;;;;;1.5;1.4;;;;;;;3.83;100;96139.96;;;;
2021/12/13 03:51:24;;;;;;;1.5;1.4;;;;;;;3.83;100;96139.96;;;;
2021/12/13 03:52:28;;;;;;;1.5;1.4;;;;;;;3.83;100;96139.96;;;;
2021/12/13 03:53:30;;;;;;;1.5;1.4;;;;;;;3.83;100;96139.96;;;;
2021/12/13 03:54:33;;;;;;;1.5;1.4;;;;;;;3.83;100;96139.96;;;;
2021/12/13 03:55:39;;;;;;;1.5;1.4;;;;;;;3.83;100;96139.96;;;;
2021/12/13 03:56:43;;;;;;;1.5;1.4;;;;;;;3.83;100;96139.96;;;;
2021/12/13 03:57:48;;;;;;;1.5;1.4;;;;;;;3.83;100;96139.96;;;;
2021/12/13 03:58:53;;;;;;;1.5;1.4;;;;;;;3.83;100;96147.58;;;;
2021/12/13 03:59:58;;;;;;;1.5;1.4;;;;;;;3.83;100;96147.58;;;;
2021/12/13 04:00:59;;;;;;;1.5;1.4;;;;;;;3.83;100;96147.58;;;;
2021/12/13 04:02:04;;;;;;;1.5;1.4;;;;;;;3.83;100;96147.58;;;;
2021/12/13 04:03:09;;;;;;;1.5;1.4;;;;;;;3.83;100;96147.58;;;;
2021/12/13 04:04:15;;;;;;;1.5;1.4;;;;;;;3.83;100;96147.58;;;;
2021/12/13 04:05:19;;;;;;;1.5;1.4;;;;;;;3.83;100;96147.58;;;;
2021/12/13 04:06:26;;;;;;;1.5;1.4;;;;;;;3.83;100;96147.58;;;;
2021/12/13 04:07:27;;;;;;;1.5;1.4;;;;;;;3.83;100;96147.58;;;;
2021/12/13 04:08:32;;;;;;;1.5;1.4;;;;;;;3.83;100;96147.58;;;;
2021/12/13 04:09:34;;;;;;;1.5;1.4;;;;;;;3.85;100;96150.89;;;;
2021/12/13 04:10:35;;;;;;;1.5;1.4;;;;;;;3.85;100;96150.89;;;;
2021/12/13 04:11:39;;;;;;;1.5;1.4;;;;;;;3.85;100;96150.89;;;;
2021/12/13 04:12:47;;;;;;;1.5;1.4;;;;;;;3.85;100;96150.89;;;;
2021/12/13 04:13:52;;;;;;;1.5;1.4;;;;;;;3.85;100;96150.89;;;;
2021/12/13 04:15:01;;;;;;;1.5;1.4;;;;;;;3.85;100;96150.89;;;;
2021/12/13 04:16:16;;;;;;;1.5;1.4;;;;;;;3.85;100;96150.89;;;;
2021/12/13 04:17:35;;;;;;;1.5;1.4;;;;;;;3.85;100;96150.89;;;;
2021/12/13 04:19:06;;;;;;;1.5;1.4;;;;;;;3.85;100;96150.89;;;;
2021/12/13 04:20:17;;;;;;;1.9;1.6;;;;;;;3.89;100;96151.79;;;;
2021/12/13 04:21:23;;;;;;;1.9;1.6;;;;;;;3.89;100;96151.79;;;;
2021/12/13 04:22:28;;;;;;;1.9;1.6;;;;;;;3.89;100;96151.79;;;;
2021/12/13 04:23:33;;;;;;;1.9;1.6;;;;;;;3.89;100;96151.79;;;;
2021/12/13 04:24:36;;;;;;;1.9;1.6;;;;;;;3.89;100;96151.79;;;;
2021/12/13 04:25:40;;;;;;;1.9;1.6;;;;;;;3.89;100;96151.79;;;;
2021/12/13 04:26:44;;;;;;;1.9;1.6;;;;;;;3.89;100;96151.79;;;;
2021/12/13 04:27:49;;;;;;;1.9;1.6;;;;;;;3.89;100;96151.79;;;;
2021/12/13 04:28:56;;;;;;;1.9;1.6;;;;;;;3.89;100;96151.79;;;;
2021/12/13 04:29:59;;;;;;;1.9;1.6;;;;;;;3.89;100;96151.79;;;;
2021/12/13 04:31:13;;;;;;;1.7;1.3;;;;;;;4;100;96160.35;;;;
2021/12/13 04:32:16;;;;;;;1.7;1.3;;;;;;;4;100;96160.35;;;;
2021/12/13 04:33:22;;;;;;;1.7;1.3;;;;;;;4;100;96160.35;;;;
2021/12/13 04:34:26;;;;;;;1.7;1.3;;;;;;;4;100;96160.35;;;;
2021/12/13 04:35:29;;;;;;;1.7;1.3;;;;;;;4;100;96160.35;;;;
2021/12/13 04:36:32;;;;;;;1.7;1.3;;;;;;;4;100;96160.35;;;;
2021/12/13 04:37:36;;;;;;;1.7;1.3;;;;;;;4;100;96160.35;;;;
2021/12/13 04:38:47;;;;;;;1.7;1.3;;;;;;;4;100;96160.35;;;;
2021/12/13 04:39:51;;;;;;;1.7;1.3;;;;;;;4;100;96160.35;;;;
2021/12/13 04:40:56;;;;;;;1.7;1.3;;;;;;;4;100;96160.35;;;;
2021/12/13 04:41:59;;;;;;;3;1.5;;;;;;;4.02;100;96163.19;;;;
2021/12/13 04:43:03;;;;;;;3;1.5;;;;;;;4.02;100;96163.19;;;;
2021/12/13 04:44:09;;;;;;;3;1.5;;;;;;;4.02;100;96163.19;;;;
2021/12/13 04:45:12;;;;;;;3;1.5;;;;;;;4.02;100;96163.19;;;;
2021/12/13 04:46:17;;;;;;;3;1.5;;;;;;;4.02;100;96163.19;;;;
2021/12/13 04:47:19;;;;;;;3;1.5;;;;;;;4.02;100;96163.19;;;;
2021/12/13 04:48:24;;;;;;;3;1.5;;;;;;;4.02;100;96163.19;;;;
2021/12/13 04:49:27;;;;;;;3;1.5;;;;;;;4.02;100;96163.19;;;;
2021/12/13 04:50:32;;;;;;;3;1.5;;;;;;;4.02;100;96163.19;;;;
2021/12/13 04:51:37;;;;;;;3;1.5;;;;;;;4.02;100;96163.19;;;;
2021/12/13 04:52:42;;;;;;;3;1.5;;;;;;;4.02;100;96163.19;;;;
2021/12/13 04:53:45;;;;;;;1.75;1.4;;;;;;;4.04;100;96169.69;;;;
2021/12/13 04:54:49;;;;;;;1.75;1.4;;;;;;;4.04;100;96169.69;;;;
2021/12/13 04:55:53;;;;;;;1.75;1.4;;;;;;;4.04;100;96169.69;;;;
2021/12/13 04:56:56;;;;;;;1.75;1.4;;;;;;;4.04;100;96169.69;;;;
2021/12/13 04:57:59;;;;;;;1.75;1.4;;;;;;;4.04;100;96169.69;;;;
2021/12/13 04:59:04;;;;;;;1.75;1.4;;;;;;;4.04;100;96169.69;;;;
2021/12/13 05:00:07;;;;;;;1.75;1.4;;;;;;;4.04;100;96169.69;;;;
2021/12/13 05:01:15;;;;;;;1.75;1.4;;;;;;;4.04;100;96169.69;;;;
2021/12/13 05:02:18;;;;;;;1.75;1.4;;;;;;;4.04;100;96169.69;;;;
2021/12/13 05:03:21;;;;;;;1.75;1.4;;;;;;;4.04;100;96169.69;;;;
2021/12/13 05:04:25;;;;;;;1.85;1.65;;;;;;;4.08;100;96192.28;;;;
2021/12/13 05:05:29;;;;;;;1.85;1.65;;;;;;;4.08;100;96192.28;;;;
2021/12/13 05:06:32;;;;;;;1.85;1.65;;;;;;;4.08;100;96192.28;;;;
2021/12/13 05:07:35;;;;;;;1.85;1.65;;;;;;;4.08;100;96192.28;;;;
2021/12/13 05:08:37;;;;;;;1.85;1.65;;;;;;;4.08;100;96192.28;;;;
2021/12/13 05:09:39;;;;;;;1.85;1.65;;;;;;;4.08;100;96192.28;;;;
2021/12/13 05:10:39;;;;;;;1.85;1.65;;;;;;;4.08;100;96192.28;;;;
2021/12/13 05:11:41;;;;;;;1.85;1.65;;;;;;;4.08;100;96192.28;;;;
2021/12/13 05:12:47;;;;;;;1.85;1.65;;;;;;;4.08;100;96192.28;;;;
2021/12/13 05:14:00;;;;;;;1.85;1.65;;;;;;;4.08;100;96192.28;;;;
2021/12/13 05:15:03;;;;;;;3.049999;1.7;;;;;;;4.12;100;96180.35;;;;
2021/12/13 05:16:10;;;;;;;3.049999;1.7;;;;;;;4.12;100;96180.35;;;;
2021/12/13 05:17:11;;;;;;;3.049999;1.7;;;;;;;4.12;100;96180.35;;;;
2021/12/13 05:18:16;;;;;;;3.049999;1.7;;;;;;;4.12;100;96180.35;;;;
2021/12/13 05:19:20;;;;;;;3.049999;1.7;;;;;;;4.12;100;96180.35;;;;
2021/12/13 05:20:27;;;;;;;3.049999;1.7;;;;;;;4.12;100;96180.35;;;;
2021/12/13 05:21:33;;;;;;;3.049999;1.7;;;;;;;4.12;100;96180.35;;;;
2021/12/13 05:22:39;;;;;;;3.049999;1.7;;;;;;;4.12;100;96180.35;;;;
2021/12/13 05:23:46;;;;;;;3.049999;1.7;;;;;;;4.12;100;96180.35;;;;
2021/12/13 05:24:50;;;;;;;3.049999;1.7;;;;;;;4.12;100;96180.35;;;;
2021/12/13 05:25:53;;;;;;;2.7;1.65;;;;;;;4.15;100;96191.94;;;;
2021/12/13 05:26:57;;;;;;;2.7;1.65;;;;;;;4.15;100;96191.94;;;;
2021/12/13 05:28:02;;;;;;;2.7;1.65;;;;;;;4.15;100;96191.94;;;;
2021/12/13 05:29:07;;;;;;;2.7;1.65;;;;;;;4.15;100;96191.94;;;;
2021/12/13 05:30:23;;;;;;;2.7;1.65;;;;;;;4.15;100;96191.94;;;;
2021/12/13 05:31:24;;;;;;;2.7;1.65;;;;;;;4.15;100;96191.94;;;;
2021/12/13 05:32:25;;;;;;;2.7;1.65;;;;;;;4.15;100;96191.94;;;;
2021/12/13 05:33:32;;;;;;;2.7;1.65;;;;;;;4.15;100;96191.94;;;;
2021/12/13 05:34:36;;;;;;;2.7;1.65;;;;;;;4.15;100;96191.94;;;;
2021/12/13 05:35:40;;;;;;;2.7;1.65;;;;;;;4.15;100;96191.94;;;;
2021/12/13 05:36:45;;;;;;;2.7;1.65;;;;;;;4.15;100;96191.94;;;;
2021/12/13 05:37:55;;;;;;;2.45;1.7;;;;;;;4.19;100;96200.02;;;;
2021/12/13 05:38:59;;;;;;;2.45;1.7;;;;;;;4.19;100;96200.02;;;;
2021/12/13 05:40:09;;;;;;;2.45;1.7;;;;;;;4.19;100;96200.02;;;;
2021/12/13 05:41:15;;;;;;;2.45;1.7;;;;;;;4.19;100;96200.02;;;;
2021/12/13 05:42:21;;;;;;;2.45;1.7;;;;;;;4.19;100;96200.02;;;;
2021/12/13 05:43:33;;;;;;;2.45;1.7;;;;;;;4.19;100;96200.02;;;;
2021/12/13 05:44:38;;;;;;;2.45;1.7;;;;;;;4.19;100;96200.02;;;;
2021/12/13 05:45:44;;;;;;;2.45;1.7;;;;;;;4.19;100;96200.02;;;;
2021/12/13 05:46:49;;;;;;;2.45;1.7;;;;;;;4.19;100;96200.02;;;;
2021/12/13 05:47:50;;;;;;;3.3;2.05;;;;;;;4.21;100;96200.16;;;;
2021/12/13 05:49:00;;;;;;;3.3;2.05;;;;;;;4.21;100;96200.16;;;;
2021/12/13 05:50:07;;;;;;;3.3;2.05;;;;;;;4.21;100;96200.16;;;;
2021/12/13 05:51:08;;;;;;;3.3;2.05;;;;;;;4.21;100;96200.16;;;;
2021/12/13 05:52:26;;;;;;;3.3;2.05;;;;;;;4.21;100;96200.16;;;;
2021/12/13 05:53:32;;;;;;;3.3;2.05;;;;;;;4.21;100;96200.16;;;;
2021/12/13 05:54:36;;;;;;;3.3;2.05;;;;;;;4.21;100;96200.16;;;;
2021/12/13 05:55:42;;;;;;;3.3;2.05;;;;;;;4.21;100;96200.16;;;;
2021/12/13 05:56:52;;;;;;;3.3;2.05;;;;;;;4.21;100;96200.16;;;;
2021/12/13 05:57:58;;;;;;;3.3;2.05;;;;;;;4.21;100;96200.16;;;;
2021/12/13 05:58:59;;;;;;;2.8;2.3;;;;;;;4.31;100;96201.7;;;;
2021/12/13 06:00:12;;;;;;;2.8;2.3;;;;;;;4.31;100;96201.7;;;;
2021/12/13 06:01:21;;;;;;;2.8;2.3;;;;;;;4.31;100;96201.7;;;;
2021/12/13 06:02:26;;;;;;;2.8;2.3;;;;;;;4.31;100;96201.7;;;;
2021/12/13 06:03:58;;;;;;;2.8;2.3;;;;;;;4.31;100;96201.7;;;;
2021/12/13 06:05:12;;;;;;;2.8;2.3;;;;;;;4.31;100;96201.7;;;;
2021/12/13 06:06:18;;;;;;;2.8;2.3;;;;;;;4.31;100;96201.7;;;;
2021/12/13 06:07:23;;;;;;;2.8;2.3;;;;;;;4.31;100;96201.7;;;;
2021/12/13 06:08:27;;;;;;;2.8;2.3;;;;;;;4.31;100;96201.7;;;;
2021/12/13 06:09:33;;;;;;;2.8;2.3;;;;;;;4.31;100;96201.7;;;;
2021/12/13 06:11:11;;;;;;;2.55;2.1;;;;;;;4.39;100;96208.33;;;;
2021/12/13 06:12:16;;;;;;;2.55;2.1;;;;;;;4.39;100;96208.33;;;;
2021/12/13 06:13:26;;;;;;;2.55;2.1;;;;;;;4.39;100;96208.33;;;;
2021/12/13 06:14:57;;;;;;;2.55;2.1;;;;;;;4.39;100;96208.33;;;;
2021/12/13 06:16:18;;;;;;;2.55;2.1;;;;;;;4.39;100;96208.33;;;;
2021/12/13 06:17:34;;;;;;;2.55;2.1;;;;;;;4.39;100;96208.33;;;;
2021/12/13 06:18:38;;;;;;;2.55;2.1;;;;;;;4.39;100;96208.33;;;;
2021/12/13 06:19:42;;;;;;;2.55;2.1;;;;;;;4.39;100;96208.33;;;;
2021/12/13 06:20:55;;;;;;;2.45;1.8;;;;;;;4.4;100;96210.52;;;;
2021/12/13 06:22:02;;;;;;;2.45;1.8;;;;;;;4.4;100;96210.52;;;;
2021/12/13 06:23:09;;;;;;;2.45;1.8;;;;;;;4.4;100;96210.52;;;;
2021/12/13 06:24:14;;;;;;;2.45;1.8;;;;;;;4.4;100;96210.52;;;;
2021/12/13 06:25:24;;;;;;;2.45;1.8;;;;;;;4.4;100;96210.52;;;;
2021/12/13 06:26:27;;;;;;;2.45;1.8;;;;;;;4.4;100;96210.52;;;;
2021/12/13 06:27:31;;;;;;;2.45;1.8;;;;;;;4.4;100;96210.52;;;;
2021/12/13 06:28:41;;;;;;;2.45;1.8;;;;;;;4.4;100;96210.52;;;;
2021/12/13 06:29:44;;;;;;;2.45;1.8;;;;;;;4.4;100;96210.52;;;;
2021/12/13 06:30:53;;;;;;;2.45;1.8;;;;;;;4.4;100;96210.52;;;;
2021/12/13 06:31:59;;;;;;;2.65;1.95;;;;;;;4.4;100;96201.15;;;;
2021/12/13 06:33:00;;;;;;;2.65;1.95;;;;;;;4.4;100;96201.15;;;;
2021/12/13 06:34:03;;;;;;;2.65;1.95;;;;;;;4.4;100;96201.15;;;;
2021/12/13 06:35:06;;;;;;;2.65;1.95;;;;;;;4.4;100;96201.15;;;;
2021/12/13 06:36:44;;;;;;;2.65;1.95;;;;;;;4.4;100;96201.15;;;;
2021/12/13 06:37:47;;;;;;;2.65;1.95;;;;;;;4.4;100;96201.15;;;;
2021/12/13 06:38:48;;;;;;;2.65;1.95;;;;;;;4.4;100;96201.15;;;;
2021/12/13 06:39:53;;;;;;;2.65;1.95;;;;;;;4.4;100;96201.15;;;;
2021/12/13 06:41:13;;;;;;;2.65;1.95;;;;;;;4.4;100;96201.15;;;;
2021/12/13 06:42:19;;;;;;;2.65;1.95;;;;;;;4.4;100;96201.15;;;;
2021/12/13 06:43:26;;;;;;;2.55;2.15;;;;;;;4.4;100;96205.1;;;;
2021/12/13 06:44:31;;;;;;;2.55;2.15;;;;;;;4.4;100;96205.1;;;;
2021/12/13 06:45:37;;;;;;;2.55;2.15;;;;;;;4.4;100;96205.1;;;;
2021/12/13 06:46:38;;;;;;;2.55;2.15;;;;;;;4.4;100;96205.1;;;;
2021/12/13 06:47:52;;;;;;;2.55;2.15;;;;;;;4.4;100;96205.1;;;;
2021/12/13 06:48:58;;;;;;;2.55;2.15;;;;;;;4.4;100;96205.1;;;;
2021/12/13 06:50:11;;;;;;;2.55;2.15;;;;;;;4.4;100;96205.1;;;;
2021/12/13 06:51:19;;;;;;;2.55;2.15;;;;;;;4.4;100;96205.1;;;;
2021/12/13 06:52:39;;;;;;;2.55;2.15;;;;;;;4.4;100;96205.1;;;;
2021/12/13 06:53:39;;;;;;;2.55;2.15;;;;;;;4.4;100;96205.1;;;;
2021/12/13 06:54:56;;;;;;;2.45;2.25;;;;;;;4.45;100;96224.18;;;;
2021/12/13 06:56:03;;;;;;;2.45;2.25;;;;;;;4.45;100;96224.18;;;;
2021/12/13 06:57:24;;;;;;;2.45;2.25;;;;;;;4.45;100;96224.18;;;;
2021/12/13 06:58:35;;;;;;;2.45;2.25;;;;;;;4.45;100;96224.18;;;;
2021/12/13 06:59:35;;;;;;;2.45;2.25;;;;;;;4.45;100;96224.18;;;;
2021/12/13 07:00:48;;;;;;;2.45;2.25;;;;;;;4.45;100;96224.18;;;;
2021/12/13 07:01:53;;;;;;;2.45;2.25;;;;;;;4.45;100;96224.18;;;;
2021/12/13 07:03:00;;;;;;;2.45;2.25;;;;;;;4.45;100;96224.18;;;;
2021/12/13 07:04:02;;;;;;;2.45;2.25;;;;;;;4.45;100;96224.18;;;;
2021/12/13 07:05:06;;;;;;;3.6;2.45;;;;;;;4.5;100;96235.1;;;;
2021/12/13 07:06:10;;;;;;;3.6;2.45;;;;;;;4.5;100;96235.1;;;;
2021/12/13 07:07:18;;;;;;;3.6;2.45;;;;;;;4.5;100;96235.1;;;;
2021/12/13 07:08:24;;;;;;;3.6;2.45;;;;;;;4.5;100;96235.1;;;;
2021/12/13 07:09:28;;;;;;;3.6;2.45;;;;;;;4.5;100;96235.1;;;;
2021/12/13 07:10:29;;;;;;;3.6;2.45;;;;;;;4.5;100;96235.1;;;;
2021/12/13 07:11:34;;;;;;;3.6;2.45;;;;;;;4.5;100;96235.1;;;;
2021/12/13 07:12:44;;;;;;;3.6;2.45;;;;;;;4.5;100;96235.1;;;;
2021/12/13 07:13:50;;;;;;;3.6;2.45;;;;;;;4.5;100;96235.1;;;;
2021/12/13 07:15:02;;;;;;;3.6;2.45;;;;;;;4.5;100;96235.1;;;;